Stations météo

Publicité
Chateau Chinon, France (7270): Température de l'air & dewpoint: 11.02.2019 17:00:00 - 17.02.2019 17:00:00 (CET)Chateau Chinon, France (7270): Vitesse du vent & gusts: 11.02.2019 17:00:00 - 17.02.2019 17:00:00 (CET)Chateau Chinon, France (7270): Direction du vent: 11.02.2019 17:00:00 - 17.02.2019 17:00:00 (CET)Chateau Chinon, France (7270): Quantités de précipitations: 11.02.2019 17:00:00 - 17.02.2019 17:00:00 (CET)
Date & Time tt [°C] td [°C] ff [km/h] ff [knt] fx [km/h] fx [knt] dd rr [mm]
17.02.2019 17:00:00 - - - - - - - -
17.02.2019 16:00:00 17,1 -7,4 8 4 18 10 SSW 0,0
17.02.2019 15:00:00 17,4 -9,5 5 3 18 10 SSW 0,0
17.02.2019 14:00:00 17,1 -8,2 4 2 28 15 WSW 0,0
17.02.2019 13:00:00 15,7 -9,3 11 6 35 19 SW -
17.02.2019 12:00:00 14,9 -11,6 13 7 42 23 SW 0,0
17.02.2019 11:00:00 13,3 -12,0 16 9 39 21 SSW 0,0
17.02.2019 10:00:00 12,3 -12,1 11 6 42 23 SSW 0,0
17.02.2019 09:00:00 11,0 -12,5 8 4 34 18 S 0,0
17.02.2019 08:00:00 10,1 -12,5 9 5 35 19 S 0,0
17.02.2019 07:00:00 9,8 -12,8 5 3 34 18 S -
17.02.2019 06:00:00 10,5 -13,6 8 4 34 18 S 0,0
17.02.2019 05:00:00 9,9 -12,7 8 4 28 15 SSE 0,0
17.02.2019 04:00:00 10,6 -11,5 8 4 22 12 S 0,0
17.02.2019 03:00:00 10,3 -8,9 4 2 21 11 SSE 0,0
17.02.2019 02:00:00 10,6 -7,7 8 4 22 12 SSE 0,0
17.02.2019 01:00:00 12,1 -7,4 5 3 29 16 S -
17.02.2019 00:00:00 12,6 -6,4 4 2 21 11 S 0,0
16.02.2019 23:00:00 10,4 -11,0 9 5 22 12 SE 0,0
16.02.2019 22:00:00 10,1 -8,6 9 5 22 12 SE 0,0
16.02.2019 21:00:00 9,7 -9,4 9 5 18 10 SE 0,0
16.02.2019 20:00:00 10,2 -11,8 8 4 22 12 SSE 0,0
16.02.2019 19:00:00 10,5 -5,5 8 4 15 8 ESE -
16.02.2019 18:00:00 12,3 -8,8 4 2 8 4 SSE 0,0
16.02.2019 17:00:00 14,3 -7,2 4 2 9 5 NW 0,0
16.02.2019 16:00:00 16,7 -7,8 4 2 13 7 WNW 0,0
16.02.2019 15:00:00 15,7 -3,3 4 2 16 9 W 0,0
16.02.2019 14:00:00 14,6 -0,7 5 3 13 7 W 0,0
16.02.2019 13:00:00 13,6 -0,1 5 3 13 7 W -
16.02.2019 12:00:00 13,6 -2,4 4 2 11 6 WSW 0,0
16.02.2019 11:00:00 12,6 -5,9 4 2 11 6 SSW 0,0
16.02.2019 10:00:00 13,6 -4,6 2 1 9 5 SE 0,0
16.02.2019 09:00:00 10,8 -6,6 2 1 11 6 SSW 0,0
16.02.2019 08:00:00 9,0 -9,5 8 4 11 6 SSE 0,0
16.02.2019 07:00:00 9,7 -9,9 4 2 11 6 S -
16.02.2019 06:00:00 9,9 -7,8 5 3 16 9 S 0,0
16.02.2019 05:00:00 10,3 -8,9 8 4 15 8 SSW 0,0
16.02.2019 04:00:00 10,1 -7,6 8 4 18 10 SSE 0,0
16.02.2019 03:00:00 10,8 -6,1 8 4 22 12 SSE 0,0
16.02.2019 02:00:00 12,5 -5,5 8 4 24 13 S 0,0
16.02.2019 01:00:00 13,5 -4,7 9 5 22 12 SSW -
16.02.2019 00:00:00 12,6 -5,5 4 2 18 10 S 0,0
15.02.2019 23:00:00 12,9 -6,2 9 5 21 11 SSE 0,0
15.02.2019 22:00:00 11,6 -6,8 9 5 18 10 SSE 0,0
15.02.2019 21:00:00 11,3 -5,7 9 5 16 9 SE 0,0
15.02.2019 20:00:00 11,0 -4,3 8 4 15 8 SE 0,0
15.02.2019 19:00:00 11,3 -2,2 5 3 16 9 ESE -
15.02.2019 18:00:00 12,1 -0,4 5 3 16 9 ESE 0,0
15.02.2019 17:00:00 15,2 -1,8 5 3 13 7 ESE 0,0
15.02.2019 16:00:00 19,4 -1,7 4 2 9 5 SSE 0,0
15.02.2019 15:00:00 19,7 -2,0 4 2 11 6 SSE 0,0
15.02.2019 14:00:00 18,6 0,2 4 2 13 7 SW 0,0
15.02.2019 13:00:00 18,0 -4,1 5 3 13 7 SE -
15.02.2019 12:00:00 15,8 -3,2 4 2 15 8 E 0,0
15.02.2019 11:00:00 13,2 -3,6 8 4 16 9 E 0,0
15.02.2019 10:00:00 12,3 -6,7 5 3 15 8 E 0,0
15.02.2019 09:00:00 9,6 -6,7 8 4 21 11 ESE 0,0
15.02.2019 08:00:00 8,9 -8,2 9 5 18 10 ESE 0,0
15.02.2019 07:00:00 8,2 -6,8 9 5 24 13 ESE -
15.02.2019 06:00:00 7,4 -5,3 8 4 22 12 ESE 0,0
15.02.2019 05:00:00 8,9 -6,5 9 5 22 12 ESE 0,0
15.02.2019 04:00:00 7,8 -5,3 8 4 18 10 ESE 0,0
15.02.2019 03:00:00 6,8 -3,5 8 4 22 12 ESE 0,0
15.02.2019 02:00:00 6,9 -3,4 8 4 16 9 ESE 0,0
15.02.2019 01:00:00 7,0 -3,8 8 4 21 11 E -
15.02.2019 00:00:00 7,1 -2,9 9 5 28 15 E 0,0
14.02.2019 23:00:00 7,3 -2,2 9 5 34 18 E 0,0
14.02.2019 22:00:00 6,9 -1,3 9 5 29 16 E 0,0
14.02.2019 21:00:00 6,5 -1,4 8 4 24 13 E 0,0
14.02.2019 20:00:00 6,9 -1,8 8 4 26 14 E 0,0
14.02.2019 19:00:00 7,8 -1,2 11 6 31 17 E -
14.02.2019 18:00:00 8,6 -1,3 8 4 22 12 E 0,0
14.02.2019 17:00:00 11,3 -1,2 4 2 18 10 ESE 0,0
14.02.2019 16:00:00 14,0 -1,6 4 2 16 9 ESE 0,0
14.02.2019 15:00:00 15,1 -2,4 4 2 21 11 E 0,0
14.02.2019 14:00:00 16,5 -2,6 4 2 15 8 SE 0,0
14.02.2019 13:00:00 15,9 -4,1 4 2 16 9 ESE -
14.02.2019 12:00:00 15,6 -6,7 5 3 16 9 ESE 0,0
14.02.2019 11:00:00 14,3 -4,0 8 4 21 11 SE 0,0
14.02.2019 10:00:00 12,3 -5,7 4 2 16 9 ESE 0,0
14.02.2019 09:00:00 9,0 -6,8 8 4 22 12 ESE 0,0
14.02.2019 08:00:00 6,5 -5,8 8 4 16 9 ESE 0,0
14.02.2019 07:00:00 6,3 -5,4 8 4 16 9 ESE -
14.02.2019 06:00:00 6,8 -5,2 8 4 16 9 SSE 0,0
14.02.2019 05:00:00 6,5 -5,8 9 5 21 11 SE 0,0
14.02.2019 04:00:00 6,6 -5,7 8 4 18 10 SSE 0,0
14.02.2019 03:00:00 5,7 -5,6 9 5 18 10 SE 0,0
14.02.2019 02:00:00 6,4 -5,6 8 4 18 10 SSE 0,0
14.02.2019 01:00:00 5,7 -5,6 9 5 22 12 SE -
14.02.2019 00:00:00 5,0 -6,9 9 5 18 10 ESE 0,0
13.02.2019 23:00:00 4,4 -6,5 9 5 28 15 ESE 0,0
13.02.2019 22:00:00 3,3 -5,4 9 5 31 17 ESE 0,0
13.02.2019 21:00:00 3,4 -5,0 11 6 34 18 ESE 0,0
13.02.2019 20:00:00 3,3 -4,0 9 5 29 16 E 0,0
13.02.2019 19:00:00 3,8 -1,8 9 5 26 14 ESE -
13.02.2019 18:00:00 4,7 -0,5 8 4 15 8 E 0,0
13.02.2019 17:00:00 8,5 -0,3 0 0 8 4 N 0,0
13.02.2019 16:00:00 9,9 -0,6 4 2 13 7 S 0,0
13.02.2019 15:00:00 8,6 1,5 5 3 15 8 WSW 0,0
13.02.2019 14:00:00 7,6 1,4 5 3 13 7 WSW 0,0
13.02.2019 13:00:00 7,5 0,2 2 1 15 8 W -
13.02.2019 12:00:00 6,9 -2,3 4 2 16 9 ESE 0,0
13.02.2019 11:00:00 4,7 -1,8 5 3 22 12 E 0,0
13.02.2019 10:00:00 2,7 -2,2 9 5 22 12 E 0,0
13.02.2019 09:00:00 0,3 -2,1 5 3 18 10 E 0,0
13.02.2019 08:00:00 -1,1 -2,4 4 2 18 10 E 0,0
13.02.2019 07:00:00 -0,5 -1,5 8 4 22 12 E -
13.02.2019 06:00:00 -1,0 -1,7 5 3 18 10 E 0,0
13.02.2019 05:00:00 -1,0 -2,1 4 2 16 9 E 0,0
13.02.2019 04:00:00 -0,8 -1,4 5 3 16 9 E 0,0
13.02.2019 03:00:00 -0,7 -1,3 8 4 16 9 ESE 0,0
13.02.2019 02:00:00 -0,2 -1,0 8 4 15 8 E 0,0
13.02.2019 01:00:00 0,0 -0,4 8 4 21 11 E -
13.02.2019 00:00:00 -0,1 -0,4 5 3 11 6 E 0,0
12.02.2019 23:00:00 0,0 -0,4 5 3 9 5 E 0,0
12.02.2019 22:00:00 0,0 -0,9 5 3 9 5 E 0,0
12.02.2019 21:00:00 0,4 -0,3 5 3 9 5 E 0,0
12.02.2019 20:00:00 1,1 0,2 4 2 8 4 E 0,0
12.02.2019 19:00:00 2,5 0,9 2 1 9 5 E -
12.02.2019 18:00:00 3,2 1,2 2 1 9 5 ESE 0,0
12.02.2019 17:00:00 4,5 0,1 4 2 11 6 NNW 0,0
12.02.2019 16:00:00 4,5 0,6 4 2 11 6 N 0,0
12.02.2019 15:00:00 4,1 0,8 4 2 8 4 N 0,0
12.02.2019 14:00:00 4,2 0,3 4 2 9 5 W 0,0
12.02.2019 13:00:00 3,1 1,6 4 2 8 4 W -
12.02.2019 12:00:00 3,7 1,7 4 2 8 4 WNW 0,0
12.02.2019 11:00:00 4,2 0,5 2 1 5 3 WNW 0,0
12.02.2019 10:00:00 4,3 1,5 2 1 8 4 ESE 0,0
12.02.2019 09:00:00 0,9 0,5 4 2 5 3 SE 0,0
12.02.2019 08:00:00 -0,3 -0,4 4 2 11 6 ESE 0,0
12.02.2019 07:00:00 -0,2 -0,2 4 2 13 7 E -
12.02.2019 06:00:00 -0,1 -0,1 4 2 11 6 E 0,0
12.02.2019 05:00:00 -0,3 -0,3 4 2 8 4 E 0,0
12.02.2019 04:00:00 -0,3 -0,3 4 2 13 7 E 0,0
12.02.2019 03:00:00 -0,1 -0,1 4 2 8 4 E 0,0
12.02.2019 02:00:00 0,3 0,3 2 1 8 4 E 0,0
12.02.2019 01:00:00 0,1 0,1 4 2 11 6 E -
12.02.2019 00:00:00 0,9 0,9 5 3 13 7 ENE 0,0
11.02.2019 23:00:00 0,7 0,7 4 2 18 10 E 0,0
11.02.2019 22:00:00 0,9 0,8 5 3 16 9 E 0,0
11.02.2019 21:00:00 1,4 1,3 5 3 13 7 ENE 0,0
11.02.2019 20:00:00 1,8 1,7 4 2 24 13 NE 0,0
11.02.2019 19:00:00 2,8 2,7 8 4 26 14 NW -
11.02.2019 18:00:00 2,9 2,8 5 3 24 13 WNW 0,0
11.02.2019 17:00:00 3,1 3,0 5 3 21 11 WNW 0,2

tt = Température de l'air
td = dewpoint
ff = Vitesse du vent
fx = gusts
dd = Direction du vent
rr = Quantités de précipitations

stations d'obs. à proximité